Time;durP1;ratioP1;P1;durP2;ratioP2;P2;SDS_P1;SDS_P2;PMS_P1;PMS_P2;Temp;Humidity;BMP_temperature;BMP_pressure;BME280_temperature;BME280_humidity;BME280_pressure;Samples;Min_cycle;Max_cycle;Signal;HPM_P1;HPM_P2
2021/09/26 00:04:23;;;;;;;;;;;;;;;17.52;92.34;101053.47;5305233;56;20154;-79
2021/09/26 00:09:29;;;;;;;;;;;;;;;17.51;92.55;101051.28;5301665;56;20855;-78
2021/09/26 00:14:34;;;;;;;;;;;;;;;17.55;92.82;101046.48;5225061;56;20151;-78
2021/09/26 00:19:39;;;;;;;;;;;;;;;17.51;92.55;101047.27;5225014;56;20737;-84
2021/09/26 00:24:44;;;;;;;;;;;;;;;17.53;92.69;101054.66;5225005;56;20143;-74
2021/09/26 00:29:49;;;;;;;;;;;;;;;17.50;92.60;101057.63;5225256;56;20657;-79
2021/09/26 00:34:53;;;;;;;;;;;;;;;17.45;92.84;101059.89;5225441;56;20211;-82
2021/09/26 00:39:58;;;;;;;;;;;;;;;17.43;93.09;101052.52;5225106;56;20150;-76
2021/09/26 00:45:03;;;;;;;;;;;;;;;17.48;93.29;101052.08;5225047;56;20151;-76
2021/09/26 00:50:09;;;;;;;;;;;;;;;17.44;92.90;101048.01;5224974;56;20148;-78
2021/09/26 00:55:14;;;;;;;;;;;;;;;17.41;92.92;101051.01;5225045;56;20147;-78
2021/09/26 01:00:21;;;;;;;;;;;;;;;17.43;93.09;101053.85;5225078;56;20155;-77
2021/09/26 01:05:27;;;;;;;;;;;;;;;17.41;92.97;101054.52;5224987;56;20136;-83
2021/09/26 01:10:44;;;;;;;;;;;;;;;17.44;93.55;101055.53;5208409;56;20143;-83
2021/09/26 01:16:11;;;;;;;;;;;;;;;17.49;93.43;101055.94;5173243;57;20370;-81
2021/09/26 01:21:27;;;;;;;;;;;;;;;17.53;93.39;101050.64;5179531;57;20150;-80
2021/09/26 01:26:51;;;;;;;;;;;;;;;17.60;93.69;101053.53;5179562;57;20146;-77
2021/09/26 01:31:59;;;;;;;;;;;;;;;17.64;93.92;101058.13;5179639;57;20150;-80
2021/09/26 01:37:09;;;;;;;;;;;;;;;17.68;94.01;101054.16;5180190;57;20206;-79
2021/09/26 01:42:39;;;;;;;;;;;;;;;17.70;93.67;101059.71;5180055;57;20174;-79
2021/09/26 01:47:49;;;;;;;;;;;;;;;17.71;93.32;101057.38;5180035;57;20139;-78
2021/09/26 01:52:56;;;;;;;;;;;;;;;17.69;92.92;101070.06;5180195;57;20189;-83
2021/09/26 01:58:02;;;;;;;;;;;;;;;17.67;92.66;101069.38;5177023;57;20199;-77
2021/09/26 02:03:07;;;;;;;;;;;;;;;17.66;92.82;101073.53;5180048;57;20427;-79
2021/09/26 02:08:14;;;;;;;;;;;;;;;17.65;93.01;101065.16;5179992;57;20823;-78
2021/09/26 02:13:19;;;;;;;;;;;;;;;17.64;92.87;101078.19;5221506;56;20143;-78
2021/09/26 02:18:25;;;;;;;;;;;;;;;17.59;92.83;101074.59;5225541;56;20190;-78
2021/09/26 02:23:29;;;;;;;;;;;;;;;17.53;92.87;101063.17;5225796;56;20407;-82
2021/09/26 02:28:34;;;;;;;;;;;;;;;17.54;93.25;101064.86;5225483;56;20365;-80
2021/09/26 02:33:44;;;;;;;;;;;;;;;17.48;92.46;101066.29;5225411;56;20155;-76
2021/09/26 02:38:47;;;;;;;;;;;;;;;17.36;92.25;101073.34;5225374;56;20159;-78
2021/09/26 02:43:55;;;;;;;;;;;;;;;17.12;92.45;101065.34;5225203;56;20529;-77
2021/09/26 02:49:00;;;;;;;;;;;;;;;17.00;93.11;101063.02;5225230;56;20183;-80
2021/09/26 02:54:06;;;;;;;;;;;;;;;16.93;93.45;101082.82;5223023;56;20235;-78
2021/09/26 02:59:11;;;;;;;;;;;;;;;16.86;93.77;101083.05;5214505;56;20258;-81
2021/09/26 03:04:16;;;;;;;;;;;;;;;16.79;93.98;101075.28;5214850;56;20196;-75
2021/09/26 03:09:21;;;;;;;;;;;;;;;16.84;94.23;101090.36;5209064;57;20541;-78
2021/09/26 03:14:26;;;;;;;;;;;;;;;16.82;93.92;101099.00;5223967;56;20209;-82
2021/09/26 03:19:30;;;;;;;;;;;;;;;16.92;94.77;101094.98;5250382;56;20197;-77
2021/09/26 03:24:36;;;;;;;;;;;;;;;17.00;94.49;101086.58;5250235;56;20385;-79
2021/09/26 03:29:43;;;;;;;;;;;;;;;16.94;93.76;101085.00;5250038;56;20274;-82
2021/09/26 03:34:48;;;;;;;;;;;;;;;16.89;94.55;101098.78;5250200;56;20190;-79
2021/09/26 03:39:53;;;;;;;;;;;;;;;16.83;94.40;101102.03;5250049;56;20174;-74
2021/09/26 03:44:57;;;;;;;;;;;;;;;16.83;94.89;101102.88;5250152;56;20446;-78
2021/09/26 03:50:04;;;;;;;;;;;;;;;16.91;95.22;101107.50;5250674;56;20178;-76
2021/09/26 03:55:11;;;;;;;;;;;;;;;16.90;94.81;101108.48;5250098;56;20648;-84
2021/09/26 04:00:19;;;;;;;;;;;;;;;16.96;94.69;101107.08;5250246;56;20385;-80
2021/09/26 04:05:24;;;;;;;;;;;;;;;17.02;95.02;101102.47;5250297;56;20187;-80
2021/09/26 04:10:29;;;;;;;;;;;;;;;17.06;94.71;101106.54;5270568;56;20548;-80
2021/09/26 04:15:34;;;;;;;;;;;;;;;16.99;94.13;101103.59;5237232;56;20286;-78
2021/09/26 04:20:39;;;;;;;;;;;;;;;17.04;95.00;101112.03;5214630;56;20174;-81
2021/09/26 04:25:44;;;;;;;;;;;;;;;17.11;95.10;101114.45;5214160;57;20274;-79
2021/09/26 04:30:49;;;;;;;;;;;;;;;17.16;95.17;101118.87;5213784;56;20214;-77
2021/09/26 04:35:55;;;;;;;;;;;;;;;17.10;94.36;101113.28;5225009;56;20490;-80
2021/09/26 04:41:02;;;;;;;;;;;;;;;17.01;94.17;101103.45;5225007;56;20155;-77
2021/09/26 04:46:06;;;;;;;;;;;;;;;16.94;94.04;101124.59;5224954;56;20415;-78
2021/09/26 04:51:11;;;;;;;;;;;;;;;17.00;94.60;101121.31;5224857;56;20606;-75
2021/09/26 04:56:16;;;;;;;;;;;;;;;17.05;94.63;101124.89;5224891;56;20208;-78
2021/09/26 05:01:21;;;;;;;;;;;;;;;17.07;94.16;101121.09;5224898;56;20435;-83
2021/09/26 05:06:26;;;;;;;;;;;;;;;17.03;94.24;101125.04;5225138;56;20479;-81
2021/09/26 05:11:32;;;;;;;;;;;;;;;17.02;94.31;101126.02;5200274;56;20176;-77
2021/09/26 05:16:38;;;;;;;;;;;;;;;16.99;94.42;101121.45;5248724;56;20143;-78
2021/09/26 05:21:45;;;;;;;;;;;;;;;16.90;93.59;101133.88;5261323;56;20171;-83
2021/09/26 05:26:50;;;;;;;;;;;;;;;16.72;93.79;101136.44;5261240;56;20150;-80
2021/09/26 05:31:55;;;;;;;;;;;;;;;16.73;94.48;101128.78;5261115;56;20871;-78
2021/09/26 05:37:00;;;;;;;;;;;;;;;16.78;94.60;101138.55;5261195;56;20486;-84
2021/09/26 05:42:06;;;;;;;;;;;;;;;16.87;94.89;101147.52;5261088;56;20800;-77
2021/09/26 05:47:14;;;;;;;;;;;;;;;16.94;94.93;101155.81;5261199;56;20185;-80
2021/09/26 05:52:18;;;;;;;;;;;;;;;16.95;94.80;101150.81;5261091;56;20131;-80
2021/09/26 05:57:22;;;;;;;;;;;;;;;16.93;94.84;101158.13;5261237;56;20151;-80
2021/09/26 06:02:28;;;;;;;;;;;;;;;16.85;94.69;101162.84;5261221;56;20877;-77
2021/09/26 06:07:34;;;;;;;;;;;;;;;16.72;94.65;101171.16;5261579;56;20139;-79
2021/09/26 06:12:38;;;;;;;;;;;;;;;16.77;95.75;101163.58;5306166;56;20138;-77
2021/09/26 06:17:43;;;;;;;;;;;;;;;16.89;95.87;101162.91;5231188;56;20864;-83
2021/09/26 06:22:48;;;;;;;;;;;;;;;17.00;96.00;101172.58;5248639;56;20202;-79
2021/09/26 06:27:52;;;;;;;;;;;;;;;17.07;95.89;101175.04;5263519;56;20152;-81
2021/09/26 06:32:57;;;;;;;;;;;;;;;17.18;96.07;101181.05;5257198;56;20136;-79
2021/09/26 06:38:03;;;;;;;;;;;;;;;17.28;95.99;101186.35;5225349;56;20219;-79
2021/09/26 06:43:08;;;;;;;;;;;;;;;17.34;96.27;101177.76;5253307;56;20507;-81
2021/09/26 06:48:13;;;;;;;;;;;;;;;17.42;96.27;101183.70;5278211;56;20171;-79
2021/09/26 06:53:18;;;;;;;;;;;;;;;17.42;96.01;101193.05;5305177;56;20180;-75
2021/09/26 06:58:24;;;;;;;;;;;;;;;17.42;96.09;101199.73;5305361;56;20773;-76
2021/09/26 07:03:29;;;;;;;;;;;;;;;17.44;96.29;101196.42;5305077;56;20180;-77
2021/09/26 07:08:34;;;;;;;;;;;;;;;17.49;96.20;101207.53;5279050;56;20175;-79
2021/09/26 07:13:39;;;;;;;;;;;;;;;17.58;96.72;101211.50;5253574;56;20622;-82
2021/09/26 07:18:44;;;;;;;;;;;;;;;17.67;96.47;101209.81;5282831;55;20168;-81
2021/09/26 07:23:49;;;;;;;;;;;;;;;17.78;96.70;101210.11;5299602;55;20154;-81
2021/09/26 07:28:55;;;;;;;;;;;;;;;17.89;96.59;101211.23;5300106;55;20175;-77
2021/09/26 07:34:02;;;;;;;;;;;;;;;17.97;96.58;101218.05;5301020;55;20181;-79
2021/09/26 07:39:07;;;;;;;;;;;;;;;18.07;96.46;101224.66;5284706;55;20148;-82
2021/09/26 07:44:13;;;;;;;;;;;;;;;18.14;96.35;101223.09;5294105;55;20185;-79
2021/09/26 07:49:18;;;;;;;;;;;;;;;18.21;96.29;101230.34;5295433;55;20151;-76
2021/09/26 07:54:23;;;;;;;;;;;;;;;18.27;96.03;101225.73;5307672;55;20175;-80
2021/09/26 07:59:27;;;;;;;;;;;;;;;18.39;96.23;101234.88;5341295;55;20152;-78
2021/09/26 08:04:33;;;;;;;;;;;;;;;18.49;96.18;101231.62;5341170;55;20148;-81
2021/09/26 08:09:39;;;;;;;;;;;;;;;18.55;96.04;101237.22;5328141;55;20505;-81
2021/09/26 08:14:44;;;;;;;;;;;;;;;18.65;96.03;101233.64;5266400;56;20148;-81
2021/09/26 08:19:49;;;;;;;;;;;;;;;18.74;95.71;101230.91;5224944;56;20376;-77
2021/09/26 08:24:54;;;;;;;;;;;;;;;18.87;95.40;101234.02;5224886;56;20514;-82
2021/09/26 08:29:59;;;;;;;;;;;;;;;18.96;94.76;101234.91;5224890;56;20190;-77
2021/09/26 08:35:06;;;;;;;;;;;;;;;19.03;94.56;101229.28;5224881;56;20740;-77
2021/09/26 08:40:12;;;;;;;;;;;;;;;19.12;94.28;101231.52;5214373;56;20251;-80
2021/09/26 08:45:19;;;;;;;;;;;;;;;19.20;93.33;101243.66;5225620;56;20154;-77
2021/09/26 08:50:25;;;;;;;;;;;;;;;19.30;93.19;101241.20;5225496;56;20521;-80
2021/09/26 08:55:30;;;;;;;;;;;;;;;19.37;92.64;101237.41;5225581;56;20365;-82
2021/09/26 09:00:36;;;;;;;;;;;;;;;19.59;93.68;101232.00;5225666;57;20151;-78
2021/09/26 09:05:42;;;;;;;;;;;;;;;19.78;92.43;101234.45;5225456;56;20733;-78
2021/09/26 09:10:55;;;;;;;;;;;;;;;19.88;92.08;101228.44;5196853;56;20149;-76
2021/09/26 09:16:02;;;;;;;;;;;;;;;19.96;91.36;101230.33;5155485;57;20170;-77
2021/09/26 09:21:25;;;;;;;;;;;;;;;20.01;91.10;101228.01;5155234;57;20185;-78
2021/09/26 09:26:35;;;;;;;;;;;;;;;20.03;89.99;101232.69;5155169;57;20179;-78
2021/09/26 09:31:50;;;;;;;;;;;;;;;20.12;89.14;101237.59;5155279;57;20168;-81
2021/09/26 09:37:16;;;;;;;;;;;;;;;20.19;87.83;101238.61;5155558;57;20156;-79
2021/09/26 09:42:22;;;;;;;;;;;;;;;20.20;88.21;101234.92;5155485;57;20137;-80
2021/09/26 09:47:27;;;;;;;;;;;;;;;20.27;88.56;101237.30;5149921;57;20180;-79
2021/09/26 09:52:43;;;;;;;;;;;;;;;20.32;88.63;101226.37;5146792;57;20928;-78
2021/09/26 09:57:48;;;;;;;;;;;;;;;20.34;88.17;101230.25;5146472;57;20259;-79
2021/09/26 10:02:53;;;;;;;;;;;;;;;20.35;87.49;101229.25;5146527;57;20176;-77
2021/09/26 10:07:58;;;;;;;;;;;;;;;20.38;87.71;101233.48;5146587;57;20180;-81
2021/09/26 10:13:14;;;;;;;;;;;;;;;20.36;87.31;101231.80;5206863;56;20179;-75
2021/09/26 10:18:18;;;;;;;;;;;;;;;20.38;85.83;101228.95;5234600;56;20175;-78
2021/09/26 10:23:24;;;;;;;;;;;;;;;20.40;86.49;101225.61;5249458;56;20214;-80
2021/09/26 10:28:30;;;;;;;;;;;;;;;20.41;86.26;101227.28;5248443;56;20181;-82
2021/09/26 10:33:35;;;;;;;;;;;;;;;20.42;85.81;101226.28;5249672;56;20680;-86
2021/09/26 10:38:40;;;;;;;;;;;;;;;20.42;84.64;101232.16;5249418;56;20936;-86
2021/09/26 10:43:46;;;;;;;;;;;;;;;20.41;84.53;101223.25;5250267;56;20494;-83
2021/09/26 10:49:10;;;;;;;;;;;;;;;20.47;84.78;101221.23;5250595;56;20175;-89
2021/09/26 10:54:34;;;;;;;;;;;;;;;20.52;84.53;101219.40;5251413;56;20167;-88
2021/09/26 10:59:43;;;;;;;;;;;;;;;20.55;83.40;101219.07;5250633;56;20190;-85
2021/09/26 11:04:50;;;;;;;;;;;;;;;20.69;83.45;101211.69;5251393;55;20250;-85
2021/09/26 11:09:59;;;;;;;;;;;;;;;20.77;82.46;101210.36;5244406;56;20260;-86
2021/09/26 11:15:13;;;;;;;;;;;;;;;20.79;82.47;101205.63;5225715;56;20459;-86
2021/09/26 11:20:29;;;;;;;;;;;;;;;20.84;81.98;101204.62;5183942;56;21000;-86
2021/09/26 11:26:00;;;;;;;;;;;;;;;20.87;81.21;101200.26;5160173;57;20383;-87
2021/09/26 11:31:13;;;;;;;;;;;;;;;20.85;81.06;101198.23;5170599;57;20505;-90
2021/09/26 11:36:19;;;;;;;;;;;;;;;20.82;80.21;101194.54;5180189;57;20150;-88
2021/09/26 11:41:37;;;;;;;;;;;;;;;20.84;80.61;101194.38;5179945;56;20159;-87
2021/09/26 11:46:50;;;;;;;;;;;;;;;20.88;80.08;101190.34;5180925;57;20382;-83
2021/09/26 11:51:58;;;;;;;;;;;;;;;20.91;79.32;101191.36;5180996;57;20142;-87
2021/09/26 11:57:02;;;;;;;;;;;;;;;21.02;79.48;101191.00;5159395;57;20154;-91
2021/09/26 12:02:15;;;;;;;;;;;;;;;21.20;77.52;101186.30;5181503;57;20174;-86
2021/09/26 12:07:20;;;;;;;;;;;;;;;21.44;77.94;101178.64;5181295;57;20150;-83
2021/09/26 12:12:28;;;;;;;;;;;;;;;21.77;76.66;101176.66;5214390;56;20907;-86
2021/09/26 12:17:36;;;;;;;;;;;;;;;22.10;72.40;101171.45;5231016;56;20174;-87
2021/09/26 12:22:41;;;;;;;;;;;;;;;22.32;72.55;101180.56;5260647;56;20839;-87
2021/09/26 12:27:52;;;;;;;;;;;;;;;22.50;70.42;101176.22;5260635;56;20150;-84
2021/09/26 12:33:05;;;;;;;;;;;;;;;22.44;70.84;101175.61;5212547;56;20190;-88
2021/09/26 12:38:13;;;;;;;;;;;;;;;22.30;71.46;101172.34;5261080;56;20150;-87
2021/09/26 12:43:24;;;;;;;;;;;;;;;22.21;70.53;101172.05;5255928;56;20150;-89
2021/09/26 12:48:30;;;;;;;;;;;;;;;22.13;70.15;101166.73;5260923;56;20158;-86
2021/09/26 12:53:39;;;;;;;;;;;;;;;22.13;70.77;101166.73;5260838;56;20199;-84
2021/09/26 12:58:46;;;;;;;;;;;;;;;22.07;70.84;101162.89;5260830;56;20514;-84
2021/09/26 13:03:56;;;;;;;;;;;;;;;22.05;70.74;101157.67;5260901;56;20151;-87
2021/09/26 13:09:13;;;;;;;;;;;;;;;22.04;70.08;101164.08;5259831;56;20154;-87
2021/09/26 13:14:23;;;;;;;;;;;;;;;22.02;70.72;101158.53;5236598;56;20150;-89
2021/09/26 13:19:40;;;;;;;;;;;;;;;;;;5213544;56;20199;-84
2021/09/26 13:24:48;;;;;;;;;;;;;;;21.99;69.21;101155.71;5171130;57;20190;-87
2021/09/26 13:29:53;;;;;;;;;;;;;;;21.97;69.13;101155.52;5171737;56;20214;-87
2021/09/26 13:35:02;;;;;;;;;;;;;;;21.97;70.59;101148.28;5172967;57;20357;-86
2021/09/26 13:40:10;;;;;;;;;;;;;;;21.97;71.27;101155.52;5172594;57;20201;-88
2021/09/26 13:45:15;;;;;;;;;;;;;;;21.94;71.78;101143.75;5172636;57;20213;-88
2021/09/26 13:50:20;;;;;;;;;;;;;;;21.91;72.18;101144.09;5172590;57;20247;-88
2021/09/26 13:55:24;;;;;;;;;;;;;;;21.86;72.50;101143.27;5171847;57;20185;-87
2021/09/26 14:00:29;;;;;;;;;;;;;;;21.82;72.07;101143.31;5172459;57;20211;-88
2021/09/26 14:05:35;;;;;;;;;;;;;;;21.83;71.91;101140.96;5170928;57;20178;-83
2021/09/26 14:10:40;;;;;;;;;;;;;;;21.83;71.03;101140.96;5161889;57;20244;-87
2021/09/26 14:15:45;;;;;;;;;;;;;;;21.80;71.04;101145.34;5146505;57;20180;-85
2021/09/26 14:20:50;;;;;;;;;;;;;;;21.80;71.24;101137.27;5124822;57;20188;-87
2021/09/26 14:25:55;;;;;;;;;;;;;;;21.80;71.67;101141.30;5105733;58;20184;-87
2021/09/26 14:31:02;;;;;;;;;;;;;;;21.79;71.06;101140.13;5106090;58;20378;-87
2021/09/26 14:36:07;;;;;;;;;;;;;;;21.73;70.68;101138.97;5105873;58;20191;-85
2021/09/26 14:41:13;;;;;;;;;;;;;;;21.67;69.98;101139.19;5107040;58;20183;-90
2021/09/26 14:46:21;;;;;;;;;;;;;;;21.61;69.88;101140.39;5089323;57;20188;-85
2021/09/26 14:51:26;;;;;;;;;;;;;;;21.54;70.06;101142.92;5107136;58;20179;-83
2021/09/26 14:56:32;;;;;;;;;;;;;;;21.50;69.56;101142.97;5106693;58;20226;-87
2021/09/26 15:01:37;;;;;;;;;;;;;;;21.47;70.03;101141.97;5106107;57;20215;-82
2021/09/26 15:06:43;;;;;;;;;;;;;;;21.44;69.76;101138.78;5106030;58;20171;-85
2021/09/26 15:11:48;;;;;;;;;;;;;;;21.43;68.92;101135.25;5106925;58;20183;-84
2021/09/26 15:16:52;;;;;;;;;;;;;;;21.40;69.24;101145.84;5107176;57;20379;-86
2021/09/26 15:21:57;;;;;;;;;;;;;;;21.35;69.39;101139.33;5175534;56;20229;-86
2021/09/26 15:27:03;;;;;;;;;;;;;;;21.31;69.08;101134.80;5216884;57;21030;-83
2021/09/26 15:32:08;;;;;;;;;;;;;;;21.27;69.56;101136.65;5216904;57;20173;-86
2021/09/26 15:37:13;;;;;;;;;;;;;;;21.25;69.63;101136.82;5158558;57;20606;-90
2021/09/26 15:42:18;;;;;;;;;;;;;;;21.24;70.23;101133.80;5136651;57;20187;-84
2021/09/26 15:47:23;;;;;;;;;;;;;;;21.23;69.70;101129.96;5136666;57;20396;-90
2021/09/26 15:52:28;;;;;;;;;;;;;;;21.32;70.76;101128.91;5135888;57;20440;-83
2021/09/26 15:57:33;;;;;;;;;;;;;;;21.29;68.57;101134.12;5136099;57;20195;-84
2021/09/26 16:02:38;;;;;;;;;;;;;;;21.15;69.18;101124.56;5136361;57;21068;-85
2021/09/26 16:07:43;;;;;;;;;;;;;;;21.00;69.06;101133.84;5135599;57;20472;-89
2021/09/26 16:12:49;;;;;;;;;;;;;;;20.89;69.12;101130.18;5157041;57;20694;-89
2021/09/26 16:17:54;;;;;;;;;;;;;;;20.73;69.39;101131.05;5161564;57;20460;-89
2021/09/26 16:23:00;;;;;;;;;;;;;;;20.66;69.11;101133.56;5200987;56;20494;-89
2021/09/26 16:28:09;;;;;;;;;;;;;;;20.60;69.45;101127.53;5218314;56;20199;-88
2021/09/26 16:33:17;;;;;;;;;;;;;;;20.53;69.62;101137.27;5218551;56;20226;-89
2021/09/26 16:38:23;;;;;;;;;;;;;;;20.47;69.82;101142.49;5218078;56;20400;-90
2021/09/26 16:43:29;;;;;;;;;;;;;;;20.34;70.06;101131.69;5217231;56;20215;-90
2021/09/26 16:48:35;;;;;;;;;;;;;;;20.28;70.19;101128.84;5218025;56;20669;-89
2021/09/26 16:53:40;;;;;;;;;;;;;;;20.19;70.30;101131.17;5218773;56;20353;-90
2021/09/26 16:58:45;;;;;;;;;;;;;;;20.07;70.47;101136.53;5218923;56;20545;-87
2021/09/26 17:03:51;;;;;;;;;;;;;;;19.94;70.66;101137.86;5218745;56;20175;-86
2021/09/26 17:08:56;;;;;;;;;;;;;;;19.83;70.96;101134.16;5216353;56;20517;-91
2021/09/26 17:14:00;;;;;;;;;;;;;;;19.77;71.17;101148.21;5149769;57;20172;-89
2021/09/26 17:19:06;;;;;;;;;;;;;;;19.75;71.41;101150.22;5149686;57;20417;-91
2021/09/26 17:24:10;;;;;;;;;;;;;;;19.72;71.55;101151.87;5149052;57;20915;-86
2021/09/26 17:29:16;;;;;;;;;;;;;;;19.65;71.70;101150.86;5149106;57;20169;-88
2021/09/26 17:34:21;;;;;;;;;;;;;;;19.57;71.78;101157.02;5148587;57;20181;-88
2021/09/26 17:39:26;;;;;;;;;;;;;;;19.50;71.97;101158.69;5147316;57;20188;-88
2021/09/26 17:44:30;;;;;;;;;;;;;;;19.44;72.11;101150.40;5147622;57;20180;-88
2021/09/26 17:49:35;;;;;;;;;;;;;;;19.36;72.13;101148.53;5148016;57;20188;-87
2021/09/26 17:54:41;;;;;;;;;;;;;;;19.31;72.36;101153.53;5147652;57;20185;-86
2021/09/26 17:59:45;;;;;;;;;;;;;;;19.24;72.38;101153.34;5147569;57;20197;-87
2021/09/26 18:04:50;;;;;;;;;;;;;;;19.15;72.40;101150.77;5147073;57;20553;-86
2021/09/26 18:09:55;;;;;;;;;;;;;;;19.06;72.54;101153.06;5164654;56;20151;-85
2021/09/26 18:15:00;;;;;;;;;;;;;;;18.98;72.76;101156.02;5225496;56;20156;-86
2021/09/26 18:20:08;;;;;;;;;;;;;;;18.94;72.85;101160.54;5225483;56;20407;-85
2021/09/26 18:25:15;;;;;;;;;;;;;;;18.92;72.90;101162.03;5264340;56;20178;-86
2021/09/26 18:30:21;;;;;;;;;;;;;;;18.94;72.98;101179.30;5271968;55;20139;-86
2021/09/26 18:35:27;;;;;;;;;;;;;;;18.93;73.07;101183.83;5270421;56;20154;-86
2021/09/26 18:40:33;;;;;;;;;;;;;;;18.88;73.06;101179.42;5270430;56;20830;-87
2021/09/26 18:45:41;;;;;;;;;;;;;;;18.82;73.08;101177.85;5270406;56;20166;-86
2021/09/26 18:50:46;;;;;;;;;;;;;;;18.73;73.05;101178.80;5270363;56;20150;-84
2021/09/26 18:55:52;;;;;;;;;;;;;;;18.61;73.13;101179.05;5270354;56;20512;-85
2021/09/26 19:00:58;;;;;;;;;;;;;;;18.50;73.35;101179.73;5270934;56;20150;-84
2021/09/26 19:06:03;;;;;;;;;;;;;;;18.39;73.43;101179.98;5264858;56;20465;-86
2021/09/26 19:11:12;;;;;;;;;;;;;;;18.31;73.57;101175.41;5233965;56;20225;-85
2021/09/26 19:16:18;;;;;;;;;;;;;;;18.28;73.79;101182.39;5205043;57;20209;-84
2021/09/26 19:21:25;;;;;;;;;;;;;;;18.26;74.07;101179.87;5205090;57;20189;-84
2021/09/26 19:26:30;;;;;;;;;;;;;;;18.21;74.16;101186.66;5204764;57;20177;-84
2021/09/26 19:31:36;;;;;;;;;;;;;;;18.12;74.27;101184.91;5205514;57;20419;-85
2021/09/26 19:36:41;;;;;;;;;;;;;;;18.04;74.48;101186.14;5205399;57;20403;-86
2021/09/26 19:41:45;;;;;;;;;;;;;;;18.01;74.72;101183.80;5205126;57;20185;-85
2021/09/26 19:46:52;;;;;;;;;;;;;;;17.94;74.74;101178.19;5205367;57;20178;-85
2021/09/26 19:51:57;;;;;;;;;;;;;;;17.90;74.92;101192.36;5205014;57;20181;-86
2021/09/26 19:57:02;;;;;;;;;;;;;;;17.88;74.96;101188.98;5204199;57;20210;-84
2021/09/26 20:02:09;;;;;;;;;;;;;;;17.86;74.96;101186.98;5203670;57;20173;-85
2021/09/26 20:07:14;;;;;;;;;;;;;;;17.83;75.10;101188.61;5202724;57;20185;-86
2021/09/26 20:12:19;;;;;;;;;;;;;;;17.77;75.24;101187.86;5280870;55;20187;-85
2021/09/26 20:17:24;;;;;;;;;;;;;;;17.74;75.51;101187.31;5331928;55;20203;-86
2021/09/26 20:22:28;;;;;;;;;;;;;;;17.68;75.66;101191.94;5332865;54;20310;-85
2021/09/26 20:27:33;;;;;;;;;;;;;;;17.59;75.89;101202.48;5340546;55;20199;-84
2021/09/26 20:32:39;;;;;;;;;;;;;;;17.56;76.10;101204.64;5340739;55;20443;-86
2021/09/26 20:37:43;;;;;;;;;;;;;;;17.52;76.33;101216.61;5340516;55;20187;-84
2021/09/26 20:42:49;;;;;;;;;;;;;;;17.42;76.61;101208.61;5341029;55;20179;-87
2021/09/26 20:47:54;;;;;;;;;;;;;;;17.34;76.94;101204.98;5341934;55;20171;-85
2021/09/26 20:52:59;;;;;;;;;;;;;;;17.26;77.19;101208.90;5340233;55;21120;-85
2021/09/26 20:58:04;;;;;;;;;;;;;;;17.21;77.39;101218.19;5339268;55;20171;-87
2021/09/26 21:03:09;;;;;;;;;;;;;;;17.19;77.76;101212.63;5332888;55;20253;-83
2021/09/26 21:08:16;;;;;;;;;;;;;;;17.16;78.20;101207.08;5270900;56;20463;-85
2021/09/26 21:13:22;;;;;;;;;;;;;;;17.08;78.30;101204.30;5228125;56;20211;-86
2021/09/26 21:18:27;;;;;;;;;;;;;;;17.02;78.42;101207.53;5281501;56;20162;-82
2021/09/26 21:23:32;;;;;;;;;;;;;;;17.01;78.63;101216.53;5286273;56;20179;-88
2021/09/26 21:28:37;;;;;;;;;;;;;;;17.00;78.74;101211.33;5217839;56;20205;-85
2021/09/26 21:33:42;;;;;;;;;;;;;;;16.99;78.97;101220.33;5137534;57;20543;-91
2021/09/26 21:38:47;;;;;;;;;;;;;;;16.91;79.11;101223.73;5191912;57;20171;-84
2021/09/26 21:43:52;;;;;;;;;;;;;;;16.86;79.39;101223.31;5201303;56;20542;-86
2021/09/26 21:48:58;;;;;;;;;;;;;;;16.82;79.87;101225.91;5255842;56;20210;-86
2021/09/26 21:54:04;;;;;;;;;;;;;;;16.77;79.69;101226.84;5238992;56;20190;-88
2021/09/26 21:59:09;;;;;;;;;;;;;;;16.72;79.93;101231.76;5245399;55;20187;-82
2021/09/26 22:04:17;;;;;;;;;;;;;;;16.67;80.06;101221.98;5233101;56;20245;-86
2021/09/26 22:09:22;;;;;;;;;;;;;;;16.61;80.29;101214.52;5175091;56;21035;-90
2021/09/26 22:14:27;;;;;;;;;;;;;;;16.59;80.38;101224.49;5149621;57;20168;-88
2021/09/26 22:19:32;;;;;;;;;;;;;;;16.57;80.68;101224.63;5149378;57;20401;-86
2021/09/26 22:24:36;;;;;;;;;;;;;;;16.51;80.89;101222.51;5148916;57;20449;-89
2021/09/26 22:29:41;;;;;;;;;;;;;;;16.44;81.12;101232.92;5148339;57;20810;-86
2021/09/26 22:34:46;;;;;;;;;;;;;;;16.34;81.50;101228.08;5148734;57;20188;-85
2021/09/26 22:39:51;;;;;;;;;;;;;;;16.30;81.60;101226.66;5148686;57;20184;-85
2021/09/26 22:44:59;;;;;;;;;;;;;;;16.24;82.00;101228.53;5149039;57;20216;-85
2021/09/26 22:50:03;;;;;;;;;;;;;;;16.20;82.23;101225.78;5148764;57;21060;-88
2021/09/26 22:55:13;;;;;;;;;;;;;;;16.18;82.43;101230.44;5148836;57;20512;-85
2021/09/26 23:00:21;;;;;;;;;;;;;;;16.18;82.40;101229.11;5145566;57;20377;-87
2021/09/26 23:05:25;;;;;;;;;;;;;;;16.18;82.75;101223.77;5146129;57;20369;-87
2021/09/26 23:10:30;;;;;;;;;;;;;;;16.13;82.88;101227.33;5171061;57;20214;-84
2021/09/26 23:15:36;;;;;;;;;;;;;;;16.08;83.22;101230.40;5217078;57;20187;-83
2021/09/26 23:20:43;;;;;;;;;;;;;;;16.01;83.37;101224.43;5216889;56;20957;-88
2021/09/26 23:25:48;;;;;;;;;;;;;;;15.97;83.64;101221.19;5216908;56;20183;-82
2021/09/26 23:30:54;;;;;;;;;;;;;;;15.96;84.11;101224.83;5217056;56;20179;-84
2021/09/26 23:35:59;;;;;;;;;;;;;;;15.85;84.37;101215.61;5216884;56;20292;-87
2021/09/26 23:41:07;;;;;;;;;;;;;;;15.80;85.77;101202.67;5216669;56;20695;-86
2021/09/26 23:46:16;;;;;;;;;;;;;;;15.76;84.79;101214.58;5216265;56;21071;-85
2021/09/26 23:51:21;;;;;;;;;;;;;;;15.74;85.04;101212.53;5216924;56;20598;-88
2021/09/26 23:56:26;;;;;;;;;;;;;;;15.72;85.60;101205.67;5216826;56;21069;-88
